createdAt,value
2022-10-22T00:03:48.161Z,986.74
2022-10-22T00:08:52.350Z,986.47
2022-10-22T00:13:56.503Z,986.40
2022-10-22T00:19:00.676Z,986.51
2022-10-22T00:24:04.818Z,986.62
2022-10-22T00:29:08.960Z,986.53
2022-10-22T00:34:13.112Z,986.46
2022-10-22T00:39:17.314Z,986.39
2022-10-22T00:44:21.463Z,986.36
2022-10-22T00:49:25.597Z,986.33
2022-10-22T00:54:29.891Z,986.38
2022-10-22T00:59:33.975Z,986.37
2022-10-22T01:04:38.064Z,986.39
2022-10-22T01:09:42.267Z,986.35
2022-10-22T01:14:46.399Z,986.31
2022-10-22T01:19:50.598Z,986.29
2022-10-22T01:24:54.737Z,986.23
2022-10-22T01:29:58.894Z,986.18
2022-10-22T01:35:03.039Z,986.03
2022-10-22T01:40:07.194Z,986.06
2022-10-22T01:45:11.381Z,985.95
2022-10-22T01:50:13.651Z,985.73
2022-10-22T01:55:17.811Z,985.67
2022-10-22T02:00:21.977Z,985.74
2022-10-22T02:05:26.116Z,985.79
2022-10-22T02:10:30.304Z,985.71
2022-10-22T02:15:34.473Z,985.69
2022-10-22T02:20:38.583Z,985.85
2022-10-22T02:25:42.787Z,985.90
2022-10-22T02:30:46.906Z,986.00
2022-10-22T02:35:51.057Z,985.99
2022-10-22T02:40:55.233Z,985.91
2022-10-22T02:45:59.391Z,986.02
2022-10-22T02:51:03.545Z,986.08
2022-10-22T02:56:07.734Z,985.96
2022-10-22T03:01:15.261Z,986.08
2022-10-22T03:06:16.156Z,986.15
2022-10-22T03:11:20.208Z,986.12
2022-10-22T03:16:24.403Z,986.34
2022-10-22T03:21:28.519Z,986.43
2022-10-22T03:26:32.714Z,986.38
2022-10-22T03:31:36.837Z,986.20
2022-10-22T03:36:39.125Z,986.15
2022-10-22T03:41:43.283Z,986.16
2022-10-22T03:46:45.553Z,986.21
2022-10-22T03:51:49.731Z,985.98
2022-10-22T03:56:52.336Z,985.92
2022-10-22T04:01:56.245Z,985.82
2022-10-22T04:07:00.292Z,985.82
2022-10-22T04:12:04.465Z,985.81
2022-10-22T04:17:08.645Z,985.65
2022-10-22T04:22:12.759Z,985.74
2022-10-22T04:27:16.928Z,985.95
2022-10-22T04:32:21.336Z,985.97
2022-10-22T04:37:23.462Z,986.16
2022-10-22T04:42:27.532Z,986.13
2022-10-22T04:47:31.762Z,986.05
2022-10-22T04:52:35.858Z,986.04
2022-10-22T04:57:40.369Z,986.20
2022-10-22T05:02:44.165Z,986.15
2022-10-22T05:07:48.370Z,986.27
2022-10-22T05:12:52.519Z,986.29
2022-10-22T05:17:56.683Z,986.24
2022-10-22T05:23:00.800Z,986.25
2022-10-22T05:28:04.942Z,986.27
2022-10-22T05:33:09.146Z,986.53
2022-10-22T05:38:13.310Z,986.58
2022-10-22T05:43:15.550Z,986.41
2022-10-22T05:48:19.740Z,986.46
2022-10-22T05:53:23.888Z,986.34
2022-10-22T05:58:28.074Z,986.36
2022-10-22T06:03:32.181Z,986.40
2022-10-22T06:08:36.433Z,986.42
2022-10-22T06:13:40.534Z,986.47
2022-10-22T06:18:44.674Z,986.55
2022-10-22T06:23:49.398Z,986.58
2022-10-22T06:28:53.049Z,986.73
2022-10-22T06:33:57.137Z,986.78
2022-10-22T06:39:01.324Z,986.89
2022-10-22T06:44:05.473Z,986.88
2022-10-22T06:49:09.670Z,986.96
2022-10-22T06:54:13.829Z,987.07
2022-10-22T06:59:18.037Z,987.15
2022-10-22T07:04:22.136Z,987.06
2022-10-22T07:09:26.272Z,987.01
2022-10-22T07:14:30.435Z,986.93
2022-10-22T07:19:34.640Z,986.76
2022-10-22T07:24:38.814Z,986.70
2022-10-22T07:29:41.044Z,986.58
2022-10-22T07:34:45.216Z,986.45
2022-10-22T07:39:47.507Z,986.36
2022-10-22T07:44:51.654Z,986.30
2022-10-22T07:49:55.817Z,986.16
2022-10-22T07:54:59.961Z,986.14
2022-10-22T08:00:04.149Z,986.01
2022-10-22T08:05:08.288Z,985.80
2022-10-22T08:10:12.426Z,985.76
2022-10-22T08:15:16.583Z,986.00
2022-10-22T08:20:20.819Z,986.22
2022-10-22T08:25:24.936Z,986.49
2022-10-22T08:30:29.097Z,986.56
2022-10-22T08:35:33.346Z,986.88
2022-10-22T08:40:37.439Z,987.14
2022-10-22T08:45:41.596Z,987.33
2022-10-22T08:50:45.698Z,987.65
2022-10-22T08:55:53.891Z,987.84
2022-10-22T09:00:54.059Z,988.14
2022-10-22T09:05:58.172Z,988.33
2022-10-22T09:11:02.351Z,988.50
2022-10-22T09:16:06.553Z,988.68
2022-10-22T09:21:10.686Z,988.80
2022-10-22T09:26:12.926Z,988.84
2022-10-22T09:31:17.123Z,988.98
2022-10-22T09:36:19.381Z,989.10
2022-10-22T09:41:23.572Z,989.13
2022-10-22T09:46:25.778Z,989.22
2022-10-22T09:56:34.123Z,989.39
2022-10-22T10:01:38.289Z,989.60
2022-10-22T10:06:42.411Z,989.61
2022-10-22T10:11:46.570Z,989.84
2022-10-22T10:16:50.724Z,989.88
2022-10-22T10:21:54.916Z,990.11
2022-10-22T10:26:59.102Z,990.26
2022-10-22T10:32:03.262Z,990.35
2022-10-22T10:37:07.369Z,990.39
2022-10-22T10:42:11.543Z,990.56
2022-10-22T10:47:15.710Z,990.67
2022-10-22T10:52:21.389Z,990.65
2022-10-22T10:57:26.037Z,990.73
2022-10-22T11:02:28.191Z,990.58
2022-10-22T11:07:34.932Z,990.66
2022-10-22T11:12:36.496Z,990.64
2022-10-22T11:17:40.666Z,990.76
2022-10-22T11:23:13.112Z,990.66
2022-10-22T11:27:49.105Z,990.75
2022-10-22T11:32:53.160Z,990.84
2022-10-22T11:37:55.403Z,990.92
2022-10-22T11:42:59.587Z,991.02
2022-10-22T11:48:01.866Z,991.04
2022-10-22T11:53:06.042Z,991.12
2022-10-22T11:58:10.193Z,991.10
2022-10-22T12:03:14.306Z,991.15
2022-10-22T12:08:18.657Z,991.13
2022-10-22T12:13:22.652Z,991.23
2022-10-22T12:18:26.811Z,991.21
2022-10-22T12:23:30.971Z,991.20
2022-10-22T12:33:39.263Z,991.10
2022-10-22T12:38:43.437Z,991.15
2022-10-22T12:43:47.607Z,991.15
2022-10-22T12:48:51.762Z,991.23
2022-10-22T12:53:55.889Z,991.27
2022-10-22T12:59:00.087Z,991.18
2022-10-22T13:04:04.245Z,991.18
2022-10-22T13:14:12.557Z,991.07
2022-10-22T13:19:14.822Z,991.12
2022-10-22T13:24:26.008Z,991.08
2022-10-22T13:29:37.112Z,991.17
2022-10-22T13:34:48.354Z,991.30
2022-10-22T13:39:59.492Z,991.29
2022-10-22T13:45:10.641Z,991.24
2022-10-22T13:50:19.938Z,991.21
2022-10-22T13:55:24.112Z,991.45
2022-10-22T14:00:28.297Z,991.40
2022-10-22T14:05:32.385Z,991.48
2022-10-22T14:10:36.528Z,991.62
2022-10-22T14:15:40.777Z,991.81
2022-10-22T14:20:44.891Z,991.82
2022-10-22T14:25:49.033Z,991.83
2022-10-22T14:30:53.235Z,991.65
2022-10-22T14:35:57.378Z,991.63
2022-10-22T14:41:01.513Z,991.76
2022-10-22T14:46:05.724Z,991.81
2022-10-22T14:51:09.841Z,991.78
2022-10-22T14:56:13.993Z,991.79
2022-10-22T15:01:19.226Z,991.87
2022-10-22T15:06:22.345Z,991.96
2022-10-22T15:11:26.489Z,991.91
2022-10-22T15:16:31.123Z,991.93
2022-10-22T15:21:34.843Z,991.96
2022-10-22T15:26:38.960Z,992.19
2022-10-22T15:31:43.091Z,992.25
2022-10-22T15:36:45.387Z,992.35
2022-10-22T15:41:49.569Z,992.45
2022-10-22T15:46:53.707Z,992.49
2022-10-22T15:51:57.872Z,992.60
2022-10-22T15:57:02.025Z,992.51
2022-10-22T16:02:06.194Z,992.59
2022-10-22T16:07:10.339Z,992.84
2022-10-22T16:12:17.231Z,992.91
2022-10-22T16:17:18.658Z,993.03
2022-10-22T16:22:22.807Z,993.18
2022-10-22T16:27:26.992Z,993.29
2022-10-22T16:32:31.140Z,993.37
2022-10-22T16:42:39.450Z,993.73
2022-10-22T16:47:43.888Z,993.78
2022-10-22T16:52:47.807Z,993.81
2022-10-22T16:57:51.930Z,993.72
2022-10-22T17:02:56.094Z,993.67
2022-10-22T17:08:00.250Z,993.66
2022-10-22T17:13:04.421Z,993.62
2022-10-22T17:18:08.600Z,993.64
2022-10-22T17:23:10.859Z,993.60
2022-10-22T17:28:17.759Z,993.56
2022-10-22T17:33:19.284Z,993.75
2022-10-22T17:38:23.315Z,993.83
2022-10-22T17:43:27.518Z,993.82
2022-10-22T17:48:31.677Z,993.86
2022-10-22T17:53:35.815Z,994.05
2022-10-22T17:58:39.980Z,994.14
2022-10-22T18:03:44.118Z,994.16
2022-10-22T18:08:48.481Z,994.28
2022-10-22T18:13:52.455Z,994.20
2022-10-22T18:24:00.799Z,994.35
2022-10-22T18:29:04.934Z,994.25
2022-10-22T18:44:17.422Z,994.30
2022-10-22T18:54:30.943Z,993.99
2022-10-22T18:59:33.141Z,993.91
2022-10-22T19:04:44.321Z,993.76
2022-10-22T19:10:21.734Z,993.71
2022-10-22T19:14:57.836Z,993.71
2022-10-22T19:20:08.927Z,993.64
2022-10-22T19:25:20.081Z,993.63
2022-10-22T19:30:31.252Z,993.49
2022-10-22T19:35:42.533Z,993.62
2022-10-22T19:40:51.715Z,993.45
2022-10-22T19:45:55.895Z,993.40
2022-10-22T19:50:58.097Z,993.37
2022-10-22T19:56:02.264Z,993.28
2022-10-22T20:01:06.490Z,993.30
2022-10-22T20:06:08.755Z,993.30
2022-10-22T20:11:12.893Z,993.41
2022-10-22T20:16:17.039Z,993.47
2022-10-22T20:21:21.196Z,993.46
2022-10-22T20:26:25.367Z,993.41
2022-10-22T20:31:29.574Z,993.45
2022-10-22T20:36:33.658Z,993.38
2022-10-22T20:41:37.884Z,993.36
2022-10-22T20:46:42.023Z,993.33
2022-10-22T20:51:46.456Z,993.48
2022-10-22T20:56:50.315Z,993.45
2022-10-22T21:01:54.497Z,993.56
2022-10-22T21:06:58.687Z,993.41
2022-10-22T21:12:02.792Z,993.43
2022-10-22T21:17:07.006Z,993.49
2022-10-22T21:22:11.147Z,993.44
2022-10-22T21:27:15.328Z,993.32
2022-10-22T21:32:19.422Z,993.22
2022-10-22T21:37:21.731Z,993.28
2022-10-22T21:42:25.873Z,993.23
2022-10-22T21:47:30.075Z,993.12
2022-10-22T21:52:32.302Z,993.21
2022-10-22T21:57:36.492Z,993.05
2022-10-22T22:02:40.888Z,992.93
2022-10-22T22:07:42.916Z,992.90
2022-10-22T22:12:47.041Z,992.96
2022-10-22T22:17:51.245Z,993.00
2022-10-22T22:22:55.428Z,992.85
2022-10-22T22:27:59.592Z,992.92
2022-10-22T22:33:03.705Z,992.92
2022-10-22T22:38:07.879Z,992.86
2022-10-22T22:43:12.035Z,992.66
2022-10-22T22:48:16.224Z,992.61
2022-10-22T22:53:20.360Z,992.61
2022-10-22T22:58:24.609Z,992.67
2022-10-22T23:03:28.697Z,992.62
2022-10-22T23:08:32.896Z,992.47
2022-10-22T23:13:37.000Z,992.43
2022-10-22T23:18:41.199Z,992.45
2022-10-22T23:23:45.368Z,992.38
2022-10-22T23:28:49.522Z,992.30
2022-10-22T23:33:53.649Z,992.11
2022-10-22T23:38:57.854Z,992.15
2022-10-22T23:44:01.962Z,992.16
2022-10-22T23:49:06.182Z,992.10
2022-10-22T23:54:08.385Z,992.08
